Time;durP1;ratioP1;P1;durP2;ratioP2;P2;SDS_P1;SDS_P2;PMS_P1;PMS_P2;Temp;Humidity;BMP_temperature;BMP_pressure;BME280_temperature;BME280_humidity;BME280_pressure;Samples;Min_cycle;Max_cycle;Signal;HPM_P1;HPM_P2
2022/08/08 00:04:59;;;;;;;0.10;0.10;;;23.30;77.30;;;;;;20985096;28;20278;-76
2022/08/08 00:15:11;;;;;;;0.25;0.20;;;23.20;77.20;;;;;;20985151;28;21182;-76
2022/08/08 00:25:21;;;;;;;0.32;0.20;;;22.90;73.40;;;;;;20942911;28;1145468;-76
2022/08/08 00:35:38;;;;;;;0.57;0.35;;;;;;;;;;20986089;28;20227;-76
2022/08/08 00:45:58;;;;;;;0.25;0.20;;;;;;;;;;20915706;28;20222;-76
2022/08/08 00:56:26;;;;;;;0.20;0.20;;;;;;;;;;20903409;28;20202;-75
2022/08/08 01:06:41;;;;;;;0.20;0.20;;;;;;;;;;20898971;28;20232;-77
2022/08/08 01:16:49;;;;;;;0.30;0.22;;;22.50;66.00;;;;;;20933764;28;20213;-76
2022/08/08 01:26:55;;;;;;;0.20;0.13;;;;;;;;;;20942931;28;20541;-76
2022/08/08 01:37:16;;;;;;;0.38;0.22;;;;;;;;;;20898396;28;20281;-77
2022/08/08 01:47:37;;;;;;;0.73;0.20;;;;;;;;;;20962922;28;20214;-76
2022/08/08 01:58:07;;;;;;;0.65;0.30;;;22.50;73.60;;;;;;20895557;28;20194;-75
2022/08/08 02:08:20;;;;;;;0.15;0.15;;;22.30;78.70;;;;;;20897044;28;20240;-75
2022/08/08 02:18:30;;;;;;;1.55;0.28;;;;;;;;;;20879352;28;20197;-75
2022/08/08 02:28:31;;;;;;;0.20;0.20;;;;;;;;;;20912731;28;20267;-76
2022/08/08 02:38:39;;;;;;;0.10;0.10;;;;;;;;;;20912241;28;20262;-75
2022/08/08 02:48:58;;;;;;;0.30;0.20;;;21.70;68.00;;;;;;20894136;28;20236;-75
2022/08/08 02:59:10;;;;;;;1.45;0.40;;;;;;;;;;20964417;28;20288;-76
2022/08/08 03:09:14;;;;;;;1.45;0.20;;;;;;;;;;21002172;28;20224;-75
2022/08/08 03:19:20;;;;;;;0.43;0.20;;;;;;;;;;20935247;28;20210;-75
2022/08/08 03:29:27;;;;;;;0.20;0.20;;;;;;;;;;20934562;22;20714;-71
2022/08/08 03:39:30;;;;;;;0.57;0.20;;;;;;;;;;20875856;28;20189;-71
2022/08/08 03:49:32;;;;;;;0.38;0.30;;;;;;;;;;20860170;28;20279;-70
2022/08/08 03:59:34;;;;;;;0.43;0.30;;;;;;;;;;20876495;28;20293;-70
2022/08/08 04:09:37;;;;;;;3.03;0.50;;;;;;;;;;20910014;28;20228;-70
2022/08/08 04:19:39;;;;;;;1.00;0.30;;;;;;;;;;20941412;28;20234;-70
2022/08/08 04:29:41;;;;;;;0.73;0.30;;;;;;;;;;20941156;28;20665;-69
2022/08/08 04:39:46;;;;;;;1.10;0.67;;;;;;;;;;20940632;28;20220;-71
2022/08/08 04:49:48;;;;;;;0.43;0.20;;;;;;;;;;20872208;28;20728;-71
2022/08/08 04:59:50;;;;;;;0.57;0.30;;;21.00;78.60;;;;;;20891081;28;20213;-70
2022/08/08 05:09:52;;;;;;;1.77;0.37;;;;;;;;;;20938445;28;20251;-71
2022/08/08 05:19:54;;;;;;;1.67;0.40;;;;;;;;;;20954267;28;20204;-71
2022/08/08 05:30:03;;;;;;;2.10;0.40;;;21.00;85.50;;;;;;20937426;28;20275;-71
2022/08/08 05:40:16;;;;;;;1.00;0.27;;;;;;;;;;20960273;28;20689;-71
2022/08/08 05:50:19;;;;;;;0.30;0.20;;;;;;;;;;20944784;28;20325;-71
2022/08/08 06:00:23;;;;;;;0.20;0.20;;;21.30;85.00;;;;;;20890115;28;20754;-71
2022/08/08 06:10:32;;;;;;;1.50;0.40;;;21.30;83.40;;;;;;20892648;28;20566;-73
2022/08/08 06:20:35;;;;;;;1.27;0.37;;;21.10;86.90;;;;;;20905662;28;20211;-71
2022/08/08 06:30:38;;;;;;;0.40;0.17;;;;;;;;;;20861602;28;20249;-73
2022/08/08 06:40:43;;;;;;;0.20;0.20;;;21.30;83.60;;;;;;20876509;28;20215;-72
2022/08/08 06:50:49;;;;;;;1.05;0.40;;;;;;;;;;20874819;28;20288;-73
2022/08/08 07:00:55;;;;;;;1.87;0.20;;;22.10;84.80;;;;;;20864363;28;20265;-73
2022/08/08 07:10:59;;;;;;;0.53;0.27;;;;;;;;;;20844960;28;20273;-72
2022/08/08 07:21:05;;;;;;;1.70;0.65;;;22.60;83.40;;;;;;20877844;28;20246;-68
2022/08/08 07:31:10;;;;;;;0.52;0.22;;;;;;;;;;20844771;28;20288;-70
2022/08/08 07:41:13;;;;;;;0.88;0.40;;;22.80;79.30;;;;;;20860280;28;20256;-71
2022/08/08 07:51:16;;;;;;;1.73;0.40;;;;;;;;;;20833638;28;20726;-72
2022/08/08 08:01:25;;;;;;;0.43;0.30;;;;;;;;;;20831897;28;20246;-67
2022/08/08 08:11:32;;;;;;;2.97;0.50;;;;;;;;;;20862596;28;20222;-71
2022/08/08 08:21:38;;;;;;;0.20;0.20;;;;;;;;;;20877562;28;20326;-70
2022/08/08 08:31:41;;;;;;;1.20;0.50;;;;;;;;;;20855411;28;20273;-71
2022/08/08 08:41:45;;;;;;;0.30;0.30;;;;;;;;;;20877298;28;20344;-68
2022/08/08 08:51:48;;;;;;;0.52;0.30;;;;;;;;;;20858206;28;20278;-74
2022/08/08 09:01:53;;;;;;;2.00;0.30;;;;;;;;;;20851125;28;20264;-73
2022/08/08 09:12:01;;;;;;;0.85;0.40;;;;;;;;;;20855693;28;20712;-74
2022/08/08 09:22:06;;;;;;;1.20;0.43;;;;;;;;;;20849572;28;20371;-71
2022/08/08 09:32:14;;;;;;;1.30;0.73;;;;;;;;;;20862603;28;20221;-71
2022/08/08 09:42:22;;;;;;;0.77;0.28;;;;;;;;;;20899241;28;20210;-73
2022/08/08 09:52:28;;;;;;;1.20;0.77;;;;;;;;;;20863827;28;20211;-72
2022/08/08 10:02:35;;;;;;;1.45;0.40;;;26.10;70.30;;;;;;20898106;28;20234;-74
2022/08/08 10:12:38;;;;;;;2.15;0.40;;;26.40;74.30;;;;;;20865381;28;20216;-71
2022/08/08 10:22:42;;;;;;;0.57;0.40;;;;;;;;;;20845424;28;20224;-72
2022/08/08 10:32:51;;;;;;;2.15;0.50;;;26.80;67.20;;;;;;20858686;28;20232;-73
2022/08/08 10:42:57;;;;;;;1.38;0.40;;;;;;;;;;20876452;28;20221;-72
2022/08/08 10:53:07;;;;;;;0.68;0.40;;;;;;;;;;20876560;28;20204;-74
2022/08/08 11:03:13;;;;;;;1.05;0.40;;;;;;;;;;20907540;28;20225;-74
2022/08/08 11:13:21;;;;;;;1.20;0.47;;;;;;;;;;20847586;28;20212;-75
2022/08/08 11:23:23;;;;;;;0.20;0.20;;;;;;;;;;20793831;28;20216;-74
2022/08/08 11:33:25;;;;;;;1.70;0.80;;;;;;;;;;20797551;28;20638;-75
2022/08/08 11:43:29;;;;;;;2.17;0.40;;;;;;;;;;20888939;28;20220;-74
2022/08/08 11:53:32;;;;;;;0.65;0.30;;;;;;;;;;20843931;28;20211;-75
2022/08/08 12:03:34;;;;;;;3.05;0.35;;;;;;;;;;20878223;28;20279;-73
2022/08/08 12:13:36;;;;;;;0.50;0.30;;;;;;;;;;20867176;28;20225;-72
2022/08/08 12:23:37;;;;;;;0.90;0.40;;;;;;;;;;20953661;22;20231;-69
2022/08/08 12:33:50;;;;;;;0.77;0.32;;;;;;;;;;21095518;28;20207;-69
2022/08/08 12:43:52;;;;;;;0.35;0.25;;;;;;;;;;21115597;28;20583;-70
2022/08/08 12:53:56;;;;;;;1.48;0.30;;;;;;;;;;21114703;28;20211;-70
2022/08/08 13:03:58;;;;;;;2.10;0.65;;;;;;;;;;21113576;28;20648;-71
2022/08/08 13:14:02;;;;;;;0.68;0.30;;;;;;;;;;21096849;28;20276;-70
2022/08/08 13:24:06;;;;;;;0.95;0.40;;;29.90;56.90;;;;;;21111835;28;20229;-70
2022/08/08 13:34:08;;;;;;;0.70;0.30;;;;;;;;;;21096263;28;20272;-70
2022/08/08 13:44:10;;;;;;;0.60;0.20;;;30.40;63.30;;;;;;21095298;28;20220;-69
2022/08/08 13:54:21;;;;;;;0.77;0.30;;;30.50;61.40;;;;;;21114256;28;20744;-70
2022/08/08 14:04:24;;;;;;;0.75;0.28;;;;;;;;;;21097873;28;20423;-70
2022/08/08 14:14:43;;;;;;;1.63;0.70;;;34.20;63.30;;;;;;21112603;28;20199;-70
2022/08/08 14:24:48;;;;;;;0.35;0.25;;;;;;;;;;21005592;28;20996;-71
2022/08/08 14:34:55;;;;;;;0.32;0.20;;;;;;;;;;21065410;28;20219;-70
2022/08/08 14:45:01;;;;;;;2.65;0.32;;;;;;;;;;21019983;28;20290;-70
2022/08/08 14:55:03;;;;;;;2.60;0.40;;;;;;;;;;20985338;28;20243;-70
2022/08/08 15:05:06;;;;;;;0.63;0.35;;;;;;;;;;21005663;28;20692;-70
2022/08/08 15:15:09;;;;;;;0.70;0.30;;;;;;;;;;21022375;28;20547;-71
2022/08/08 15:25:11;;;;;;;0.35;0.20;;;31.30;58.90;;;;;;20998577;28;20313;-71
2022/08/08 15:35:15;;;;;;;0.52;0.30;;;;;;;;;;20938135;28;20721;-70
2022/08/08 15:45:17;;;;;;;0.30;0.30;;;;;;;;;;21024365;28;20637;-69
2022/08/08 15:55:19;;;;;;;0.28;0.20;;;;;;;;;;21051152;28;20292;-70
2022/08/08 16:05:21;;;;;;;1.50;0.52;;;;;;;;;;21077492;28;20220;-70
2022/08/08 16:15:23;;;;;;;1.20;0.28;;;;;;;;;;21052166;28;20756;-73
2022/08/08 16:25:25;;;;;;;0.30;0.30;;;;;;;;;;20975926;28;20274;-72
2022/08/08 16:35:27;;;;;;;1.27;0.30;;;;;;;;;;20996402;28;20216;-70
2022/08/08 16:45:29;;;;;;;0.47;0.32;;;;;;;;;;20990111;28;20635;-70
2022/08/08 16:55:31;;;;;;;0.20;0.20;;;;;;;;;;21002335;28;20213;-71
2022/08/08 17:05:33;;;;;;;1.65;0.40;;;;;;;;;;20996068;28;20216;-68
2022/08/08 17:15:35;;;;;;;0.47;0.30;;;;;;;;;;21004527;28;20265;-71
2022/08/08 17:25:37;;;;;;;0.88;0.30;;;;;;;;;;21023010;28;20219;-72
2022/08/08 17:35:39;;;;;;;0.60;0.30;;;;;;;;;;21011243;28;20655;-69
2022/08/08 17:45:41;;;;;;;2.90;0.30;;;;;;;;;;21032765;28;20232;-71
2022/08/08 17:55:43;;;;;;;0.47;0.13;;;;;;;;;;21009118;28;21052;-70
2022/08/08 18:05:46;;;;;;;0.30;0.20;;;;;;;;;;21027230;28;20308;-70
2022/08/08 18:15:48;;;;;;;0.38;0.20;;;;;;;;;;21024607;28;20234;-71
2022/08/08 18:25:50;;;;;;;0.30;0.20;;;;;;;;;;20955529;28;20224;-69
2022/08/08 18:35:52;;;;;;;1.00;0.30;;;;;;;;;;21043105;22;20287;-74
2022/08/08 18:45:55;;;;;;;1.42;0.30;;;;;;;;;;21188984;28;20222;-74
2022/08/08 18:55:57;;;;;;;1.00;0.30;;;;;;;;;;21224961;27;20207;-74
2022/08/08 19:05:59;;;;;;;0.30;0.30;;;;;;;;;;21171147;27;20226;-73
2022/08/08 19:16:01;;;;;;;0.88;0.20;;;;;;;;;;21147265;28;20242;-74
2022/08/08 19:26:02;;;;;;;0.50;0.20;;;;;;;;;;21157812;27;20234;-73
2022/08/08 19:36:04;;;;;;;1.27;0.25;;;;;;;;;;21159637;28;20222;-74
2022/08/08 19:46:08;;;;;;;0.60;0.28;;;;;;;;;;21161284;27;20300;-74
2022/08/08 19:56:10;;;;;;;0.93;0.40;;;;;;;;;;21199812;27;20278;-74
2022/08/08 20:06:12;;;;;;;1.10;0.32;;;;;;;;;;21221924;27;20214;-74
2022/08/08 20:16:15;;;;;;;1.35;0.20;;;27.70;62.40;;;;;;21211598;27;20758;-73
2022/08/08 20:26:17;;;;;;;1.95;0.30;;;;;;;;;;21230738;27;20214;-73
2022/08/08 20:36:19;;;;;;;3.65;0.30;;;;;;;;;;21065155;28;20281;-73
2022/08/08 20:46:21;;;;;;;1.48;0.32;;;;;;;;;;21048222;28;20214;-73
2022/08/08 20:56:24;;;;;;;0.30;0.20;;;;;;;;;;21066538;28;20759;-73
2022/08/08 21:06:26;;;;;;;0.30;0.20;;;;;;;;;;21050738;28;20207;-73
2022/08/08 21:16:28;;;;;;;0.57;0.30;;;;;;;;;;21051047;28;20198;-73
2022/08/08 21:26:29;;;;;;;2.20;0.30;;;;;;;;;;21069407;28;20223;-73
2022/08/08 21:36:32;;;;;;;0.52;0.28;;;;;;;;;;21110224;27;20247;-73
2022/08/08 21:46:33;;;;;;;3.40;0.45;;;;;;;;;;21177431;27;20242;-73
2022/08/08 21:56:35;;;;;;;1.80;0.43;;;;;;;;;;21181295;28;20689;-73
2022/08/08 22:06:37;;;;;;;0.28;0.25;;;;;;;;;;21235808;28;20580;-73
2022/08/08 22:16:39;;;;;;;0.55;0.32;;;;;;;;;;21235862;28;20251;-73
2022/08/08 22:26:40;;;;;;;0.63;0.45;;;;;;;;;;21235820;28;20210;-73
2022/08/08 22:36:42;;;;;;;0.28;0.22;;;;;;;;;;21189455;27;20222;-73
2022/08/08 22:46:44;;;;;;;0.47;0.30;;;;;;;;;;21250457;27;20218;-73
2022/08/08 22:56:45;;;;;;;0.22;0.20;;;;;;;;;;21230544;27;20597;-73
2022/08/08 23:06:47;;;;;;;0.73;0.38;;;;;;;;;;21248455;27;20214;-73
2022/08/08 23:16:52;;;;;;;0.20;0.20;;;;;;;;;;21213282;27;20550;-73
2022/08/08 23:26:54;;;;;;;2.75;0.50;;;;;;;;;;21246773;27;20217;-73
2022/08/08 23:36:56;;;;;;;1.10;0.43;;;;;;;;;;21246203;27;20278;-73
2022/08/08 23:46:58;;;;;;;0.50;0.20;;;;;;;;;;21245348;27;20218;-73
2022/08/08 23:56:59;;;;;;;1.73;0.45;;;;;;;;;;21244545;27;20200;-73
